Time;durP1;ratioP1;P1;durP2;ratioP2;P2;SDS_P1;SDS_P2;PMS_P1;PMS_P2;Temp;Humidity;BMP_temperature;BMP_pressure;BME280_temperature;BME280_humidity;BME280_pressure;Samples;Min_cycle;Max_cycle;Signal;HPM_P1;HPM_P2
2021/12/23 00:05:04;;;;;;;22.70;17.17;;;4.90;80.50;;;;;;10745613;33;20052;-70
2021/12/23 00:11:09;;;;;;;21.52;14.45;;;4.90;80.70;;;;;;10755035;33;20033;-70
2021/12/23 00:23:33;;;;;;;21.87;13.90;;;5.00;80.30;;;;;;10646074;33;20056;-70
2021/12/23 00:29:38;;;;;;;22.30;16.75;;;5.20;80.40;;;;;;10771608;33;20050;-70
2021/12/23 00:35:40;;;;;;;26.55;16.58;;;5.10;80.40;;;;;;10794403;33;20028;-70
2021/12/23 00:41:44;;;;;;;26.52;18.83;;;5.20;80.20;;;;;;10793938;33;20048;-70
2021/12/23 00:47:46;;;;;;;29.55;21.00;;;5.40;79.90;;;;;;10793836;33;20028;-73
2021/12/23 00:54:30;;;;;;;23.30;15.38;;;5.50;79.70;;;;;;10793477;33;20054;-73
2021/12/23 01:00:34;;;;;;;25.12;19.17;;;5.60;79.40;;;;;;10720584;33;20076;-73
2021/12/23 01:06:56;;;;;;;21.17;16.20;;;5.60;79.30;;;;;;10719462;33;20059;-73
2021/12/23 01:13:02;;;;;;;26.40;16.95;;;5.70;79.10;;;;;;10719067;33;20024;-73
2021/12/23 01:19:11;;;;;;;22.98;16.17;;;5.70;78.90;;;;;;10718804;33;20123;-73
2021/12/23 01:25:13;;;;;;;23.98;17.87;;;5.80;78.70;;;;;;10719941;33;20060;-73
2021/12/23 01:31:39;;;;;;;26.60;18.15;;;5.80;78.50;;;;;;10719661;33;20210;-73
2021/12/23 01:37:42;;;;;;;21.92;15.65;;;5.80;78.30;;;;;;10914901;32;20054;-73
2021/12/23 01:43:44;;;;;;;27.30;19.15;;;5.90;78.10;;;;;;10984107;27;20040;-73
2021/12/23 01:49:46;;;;;;;31.98;19.27;;;6.00;78.60;;;;;;11019541;32;20026;-73
2021/12/23 01:55:49;;;;;;;24.52;17.00;;;6.10;78.30;;;;;;11016967;32;20053;-73
2021/12/23 02:01:51;;;;;;;29.30;19.67;;;6.00;77.90;;;;;;11015258;32;20327;-73
2021/12/23 02:07:53;;;;;;;30.27;19.50;;;6.00;77.80;;;;;;11002838;32;20014;-73
2021/12/23 02:13:56;;;;;;;34.03;17.67;;;6.00;77.60;;;;;;11018821;32;20010;-73
2021/12/23 02:19:58;;;;;;;24.20;15.68;;;5.90;77.30;;;;;;11005021;32;20278;-74
2021/12/23 02:26:00;;;;;;;18.37;13.30;;;6.00;77.30;;;;;;11018483;32;20010;-73
2021/12/23 02:32:03;;;;;;;23.45;15.18;;;5.90;77.20;;;;;;11018257;32;20041;-73
2021/12/23 02:38:06;;;;;;;19.40;14.25;;;5.90;77.00;;;;;;11018100;32;20483;-74
2021/12/23 02:44:08;;;;;;;23.75;17.92;;;5.80;76.90;;;;;;11004210;32;20326;-73
2021/12/23 02:50:10;;;;;;;24.77;16.48;;;5.90;77.20;;;;;;11013761;32;20014;-74
2021/12/23 02:56:22;;;;;;;31.60;18.58;;;6.10;77.00;;;;;;11018500;32;20022;-74
2021/12/23 03:02:24;;;;;;;29.65;20.85;;;6.10;76.80;;;;;;11017629;32;20060;-74
2021/12/23 03:08:37;;;;;;;23.98;17.23;;;6.00;76.70;;;;;;11017615;32;20045;-74
2021/12/23 03:14:40;;;;;;;27.30;18.33;;;6.10;76.60;;;;;;11017375;32;20019;-74
2021/12/23 03:20:42;;;;;;;21.87;15.32;;;6.10;76.40;;;;;;11017107;32;20030;-74
2021/12/23 03:26:44;;;;;;;22.90;17.00;;;6.10;76.20;;;;;;11018391;32;20334;-74
2021/12/23 03:32:46;;;;;;;25.88;18.05;;;6.00;76.30;;;;;;11017115;32;20319;-74
2021/12/23 03:38:48;;;;;;;24.90;18.42;;;6.00;76.10;;;;;;11016935;32;20030;-74
2021/12/23 03:44:51;;;;;;;24.17;15.98;;;6.00;76.10;;;;;;11016853;32;20432;-74
2021/12/23 03:50:53;;;;;;;22.60;18.17;;;5.90;76.00;;;;;;11016729;32;20036;-74
2021/12/23 03:56:55;;;;;;;20.33;14.70;;;5.80;75.90;;;;;;11017376;32;20057;-70
2021/12/23 04:02:57;;;;;;;22.17;15.30;;;5.60;76.00;;;;;;11023457;32;20045;-70
2021/12/23 04:08:59;;;;;;;22.52;14.75;;;5.50;76.60;;;;;;11023125;32;20088;-70
2021/12/23 04:15:03;;;;;;;19.23;15.40;;;5.50;76.60;;;;;;11022701;32;20094;-70
2021/12/23 04:21:05;;;;;;;23.48;16.95;;;5.40;76.40;;;;;;11022564;32;20061;-70
2021/12/23 04:27:07;;;;;;;27.70;16.08;;;5.30;76.70;;;;;;11022441;32;20019;-70
2021/12/23 04:33:10;;;;;;;21.65;15.63;;;5.30;76.60;;;;;;11022339;32;20425;-70
2021/12/23 04:39:12;;;;;;;18.55;12.63;;;5.20;76.70;;;;;;11021882;32;20052;-74
2021/12/23 04:45:15;;;;;;;16.73;12.13;;;5.10;77.10;;;;;;11021956;32;20040;-74
2021/12/23 04:51:18;;;;;;;19.40;13.93;;;5.00;77.10;;;;;;11021854;32;20015;-70
2021/12/23 04:57:20;;;;;;;20.37;13.68;;;5.00;77.30;;;;;;11021256;32;20029;-70
2021/12/23 05:03:24;;;;;;;18.30;13.00;;;5.10;76.70;;;;;;11007550;32;20018;-70
2021/12/23 05:09:26;;;;;;;17.08;13.18;;;4.40;77.30;;;;;;11007232;32;20383;-70
2021/12/23 05:15:28;;;;;;;16.73;13.18;;;4.20;78.80;;;;;;11020677;32;20045;-70
2021/12/23 05:21:31;;;;;;;19.37;15.13;;;4.10;78.60;;;;;;11020557;32;20014;-70
2021/12/23 05:27:33;;;;;;;19.73;15.07;;;4.00;78.80;;;;;;11006654;32;20048;-70
2021/12/23 05:33:35;;;;;;;19.95;13.18;;;4.10;79.50;;;;;;11018066;32;20046;-70
2021/12/23 05:39:38;;;;;;;20.23;16.37;;;3.90;79.30;;;;;;11019667;32;20026;-70
2021/12/23 05:45:40;;;;;;;22.20;16.10;;;3.70;79.60;;;;;;11019319;32;20010;-70
2021/12/23 05:51:42;;;;;;;25.58;18.92;;;4.10;80.20;;;;;;11019421;32;20037;-70
2021/12/23 05:57:45;;;;;;;21.95;18.45;;;4.40;79.10;;;;;;11014860;32;20049;-70
2021/12/23 06:03:47;;;;;;;22.77;16.83;;;4.70;78.80;;;;;;11019234;32;20023;-74
2021/12/23 06:09:49;;;;;;;25.90;16.95;;;5.00;78.20;;;;;;11019431;32;20049;-74
2021/12/23 06:15:51;;;;;;;23.75;14.90;;;4.90;77.60;;;;;;11016705;32;20288;-74
2021/12/23 06:21:53;;;;;;;23.40;17.50;;;4.50;78.50;;;;;;11018320;32;20015;-74
2021/12/23 06:27:55;;;;;;;36.35;22.08;;;4.50;79.00;;;;;;11017705;32;20053;-75
2021/12/23 06:33:57;;;;;;;25.15;18.90;;;4.80;78.70;;;;;;11003372;32;20048;-74
2021/12/23 06:39:59;;;;;;;24.12;17.83;;;5.20;78.00;;;;;;10986131;32;20030;-75
2021/12/23 06:46:02;;;;;;;28.70;21.25;;;5.20;77.40;;;;;;11014181;32;20037;-75
2021/12/23 06:52:06;;;;;;;29.75;19.58;;;5.20;77.20;;;;;;11017936;32;20030;-74
2021/12/23 06:58:08;;;;;;;29.25;22.17;;;5.20;77.30;;;;;;11004069;32;20018;-75
2021/12/23 07:04:16;;;;;;;27.87;19.65;;;5.20;77.20;;;;;;11017703;32;20048;-75
2021/12/23 07:10:25;;;;;;;28.73;18.73;;;5.30;77.00;;;;;;10988325;32;20422;-75
2021/12/23 07:16:27;;;;;;;21.75;18.20;;;4.80;76.90;;;;;;10991335;32;20141;-73
2021/12/23 07:22:29;;;;;;;26.52;19.85;;;4.20;78.40;;;;;;11017549;32;20010;-75
2021/12/23 07:28:31;;;;;;;22.17;18.55;;;4.10;79.20;;;;;;11003667;32;20018;-75
2021/12/23 07:34:34;;;;;;;27.73;20.95;;;4.00;79.70;;;;;;11020727;32;20311;-75
2021/12/23 07:40:36;;;;;;;33.53;27.33;;;4.10;79.80;;;;;;11016993;32;20085;-75
2021/12/23 07:46:38;;;;;;;39.95;31.00;;;4.30;79.70;;;;;;10972502;32;20045;-75
2021/12/23 07:52:40;;;;;;;31.95;22.95;;;4.30;79.60;;;;;;10985915;32;20049;-75
2021/12/23 07:58:44;;;;;;;28.12;23.27;;;4.20;79.40;;;;;;10985419;32;20018;-75
2021/12/23 08:04:47;;;;;;;34.35;28.38;;;4.20;80.00;;;;;;10980963;32;20027;-75
2021/12/23 08:10:50;;;;;;;42.50;34.97;;;4.70;80.20;;;;;;10984725;32;20338;-75
2021/12/23 08:16:53;;;;;;;37.17;31.02;;;5.20;79.90;;;;;;10984857;32;20049;-75
2021/12/23 08:22:55;;;;;;;46.13;35.85;;;5.50;78.90;;;;;;10984762;32;20010;-75
2021/12/23 08:28:57;;;;;;;36.45;28.75;;;5.60;78.40;;;;;;10984357;32;20053;-75
2021/12/23 08:35:00;;;;;;;52.20;34.20;;;5.70;77.90;;;;;;10970716;32;20323;-74
2021/12/23 08:41:02;;;;;;;36.13;27.80;;;5.50;78.30;;;;;;10983543;32;20022;-74
2021/12/23 08:47:04;;;;;;;45.72;34.63;;;5.70;78.50;;;;;;10982646;32;20018;-74
2021/12/23 08:53:07;;;;;;;38.38;27.30;;;5.80;78.70;;;;;;10980323;32;20015;-74
2021/12/23 08:59:09;;;;;;;31.50;23.95;;;6.10;78.40;;;;;;10983158;32;20015;-74
2021/12/23 09:06:09;;;;;;;28.20;22.80;;;6.20;78.50;;;;;;10982819;32;20064;-73
2021/12/23 09:12:12;;;;;;;31.08;24.90;;;6.10;78.40;;;;;;10781229;32;20408;-73
2021/12/23 09:18:15;;;;;;;32.13;25.55;;;5.50;79.10;;;;;;10791258;32;20019;-73
2021/12/23 09:24:18;;;;;;;40.75;28.10;;;5.20;80.00;;;;;;10791469;33;20087;-73
2021/12/23 09:36:43;;;;;;;35.65;27.37;;;5.00;80.40;;;;;;10828965;32;20408;-73
2021/12/23 09:42:47;;;;;;;30.30;21.85;;;4.90;80.60;;;;;;10456268;27;12077590;-73
2021/12/23 09:48:50;;;;;;;32.25;24.95;;;4.80;80.80;;;;;;10728773;33;20421;-73
2021/12/23 09:55:15;;;;;;;35.47;29.08;;;4.70;81.10;;;;;;10722833;33;20025;-72
2021/12/23 10:01:17;;;;;;;30.42;24.20;;;4.90;81.90;;;;;;10723101;33;20279;-72
2021/12/23 10:07:20;;;;;;;30.80;23.02;;;5.60;81.70;;;;;;10723373;33;20024;-71
2021/12/23 10:38:40;;;;;;;29.27;22.75;;;5.80;82.00;;;;;;10785933;33;20028;-72
2021/12/23 10:44:52;;;;;;;30.52;22.98;;;5.90;82.00;;;;;;10775133;33;20051;-72
2021/12/23 10:51:17;;;;;;;31.15;24.42;;;6.00;82.20;;;;;;10787898;33;20043;-74
2021/12/23 11:04:09;;;;;;;30.90;21.55;;;5.90;82.50;;;;;;10788313;33;20054;-73
2021/12/23 11:42:05;;;;;;;28.38;20.83;;;6.00;81.60;;;;;;10678313;33;20342;-73
2021/12/23 11:48:08;;;;;;;33.60;23.05;;;6.30;82.20;;;;;;10680016;33;20044;-75
2021/12/23 11:54:13;;;;;;;26.52;21.92;;;6.40;82.30;;;;;;10676843;33;20218;-74
2021/12/23 12:00:20;;;;;;;36.97;27.52;;;6.50;82.60;;;;;;10676670;33;20329;-72
2021/12/23 12:06:27;;;;;;;29.48;22.23;;;6.50;82.20;;;;;;10679101;33;20033;-73
2021/12/23 12:12:31;;;;;;;40.50;27.60;;;6.30;82.80;;;;;;10730017;33;20025;-71
2021/12/23 12:18:45;;;;;;;41.22;31.15;;;6.40;81.90;;;;;;10753560;33;20329;-71
2021/12/23 12:24:47;;;;;;;40.50;27.92;;;6.20;82.40;;;;;;10752664;33;20036;-71
2021/12/23 12:31:19;;;;;;;31.17;24.35;;;6.20;82.40;;;;;;10755258;33;20020;-71
2021/12/23 12:37:21;;;;;;;37.22;26.48;;;6.20;82.40;;;;;;10760413;32;20321;-70
2021/12/23 12:43:51;;;;;;;37.75;29.65;;;6.10;82.40;;;;;;10752690;33;20047;-70
2021/12/23 12:50:19;;;;;;;33.35;25.30;;;6.10;82.80;;;;;;10754938;33;20017;-70
2021/12/23 12:56:26;;;;;;;33.58;25.67;;;6.10;82.90;;;;;;10754718;33;20021;-70
2021/12/23 13:02:32;;;;;;;47.10;33.15;;;6.10;82.80;;;;;;10754501;33;20047;-70
2021/12/23 13:08:36;;;;;;;38.25;28.45;;;6.20;82.50;;;;;;10754395;32;20029;-70
2021/12/23 13:15:05;;;;;;;43.08;30.20;;;6.20;82.40;;;;;;10754070;33;20043;-70
2021/12/23 13:21:21;;;;;;;37.33;26.73;;;6.20;82.60;;;;;;10753934;33;20024;-70
2021/12/23 13:27:24;;;;;;;33.38;25.50;;;6.20;81.90;;;;;;10753651;33;20075;-70
2021/12/23 13:33:27;;;;;;;30.60;22.48;;;6.10;82.40;;;;;;10789179;33;20082;-70
2021/12/23 13:39:32;;;;;;;33.20;22.48;;;6.10;82.70;;;;;;10785742;33;20032;-70
2021/12/23 13:45:34;;;;;;;29.12;22.08;;;6.10;82.80;;;;;;10785823;33;20356;-70
2021/12/23 13:51:41;;;;;;;26.83;20.02;;;6.00;82.90;;;;;;10789661;33;20039;-70
2021/12/23 13:57:46;;;;;;;32.72;21.35;;;6.10;83.40;;;;;;10776395;33;20054;-70
2021/12/23 14:03:48;;;;;;;37.95;19.52;;;6.10;83.20;;;;;;10789327;33;20021;-70
2021/12/23 14:10:14;;;;;;;28.38;19.30;;;6.10;83.20;;;;;;10776743;33;20021;-70
2021/12/23 14:16:20;;;;;;;29.73;23.62;;;6.00;83.30;;;;;;10788865;33;20427;-70
2021/12/23 14:28:45;;;;;;;20.48;16.08;;;6.00;83.30;;;;;;10788684;33;20008;-70
2021/12/23 14:34:47;;;;;;;23.85;17.40;;;6.00;83.60;;;;;;10788522;33;20051;-70
2021/12/23 14:41:11;;;;;;;27.92;20.35;;;6.10;84.10;;;;;;10787824;33;20324;-70
2021/12/23 14:47:31;;;;;;;24.95;17.58;;;6.20;83.70;;;;;;10785070;33;20028;-70
2021/12/23 14:53:33;;;;;;;27.48;18.90;;;6.00;84.00;;;;;;10783025;32;20055;-70
2021/12/23 14:59:45;;;;;;;23.85;18.08;;;5.90;84.20;;;;;;10783226;33;20028;-70
2021/12/23 15:05:50;;;;;;;24.55;18.85;;;5.70;84.50;;;;;;10787624;33;20043;-70
2021/12/23 15:11:52;;;;;;;35.78;26.45;;;5.60;84.70;;;;;;10785039;33;20016;-70
2021/12/23 15:17:59;;;;;;;31.65;23.77;;;5.70;85.00;;;;;;10787323;33;20055;-70
2021/12/23 15:24:24;;;;;;;27.23;20.92;;;6.10;84.60;;;;;;10787297;33;20047;-70
2021/12/23 15:30:29;;;;;;;30.48;21.00;;;6.00;84.30;;;;;;10787203;33;20393;-70
2021/12/23 15:36:34;;;;;;;30.12;22.48;;;6.10;84.40;;;;;;10787006;33;20047;-70
2021/12/23 15:42:38;;;;;;;30.98;21.85;;;6.10;83.70;;;;;;10786450;33;20020;-70
2021/12/23 15:48:41;;;;;;;28.00;20.15;;;5.80;83.90;;;;;;10786869;33;20047;-72
2021/12/23 15:54:44;;;;;;;23.80;17.02;;;5.50;84.30;;;;;;10789402;33;20329;-70
2021/12/23 16:00:46;;;;;;;29.30;16.75;;;5.30;84.60;;;;;;10792479;33;20096;-72
2021/12/23 16:13:09;;;;;;;29.33;20.85;;;5.00;84.90;;;;;;10790932;33;20051;-70
2021/12/23 16:19:11;;;;;;;26.25;20.27;;;5.00;84.80;;;;;;10792067;33;20028;-70
2021/12/23 16:25:14;;;;;;;27.40;20.05;;;4.90;84.90;;;;;;10779775;32;20047;-70
2021/12/23 16:31:19;;;;;;;30.33;19.20;;;5.20;85.20;;;;;;10788786;33;20090;-72
2021/12/23 16:37:21;;;;;;;33.28;22.48;;;5.60;84.40;;;;;;10791441;33;20025;-73
2021/12/23 16:43:25;;;;;;;31.35;19.02;;;5.80;83.60;;;;;;10791297;33;20024;-73
2021/12/23 16:49:28;;;;;;;28.95;19.42;;;5.40;83.10;;;;;;10778251;33;20020;-72
2021/12/23 16:55:43;;;;;;;32.15;23.42;;;5.00;83.60;;;;;;10787442;33;20336;-72
2021/12/23 17:01:46;;;;;;;27.87;19.02;;;4.60;83.70;;;;;;10789324;33;20028;-72
2021/12/23 17:07:49;;;;;;;35.33;23.10;;;4.40;84.30;;;;;;10790529;33;20028;-73
2021/12/23 17:13:51;;;;;;;30.73;22.77;;;4.50;84.50;;;;;;10768101;32;20028;-72
2021/12/23 17:20:01;;;;;;;27.00;19.58;;;4.40;84.00;;;;;;10773382;33;20032;-72
2021/12/23 17:26:05;;;;;;;58.63;33.92;;;4.20;84.10;;;;;;10790467;33;20017;-72
2021/12/23 17:32:07;;;;;;;42.17;30.98;;;4.20;84.20;;;;;;10781124;33;20052;-72
2021/12/23 17:38:13;;;;;;;39.85;26.90;;;4.20;84.40;;;;;;10753386;33;20290;-72
2021/12/23 17:44:16;;;;;;;32.65;22.35;;;4.50;84.10;;;;;;10910381;27;20354;-72
2021/12/23 17:50:21;;;;;;;30.90;21.70;;;4.40;83.70;;;;;;11019996;32;20022;-72
2021/12/23 17:56:23;;;;;;;27.13;19.37;;;4.60;84.20;;;;;;11017883;32;20095;-72
2021/12/23 18:02:29;;;;;;;32.47;21.50;;;4.60;83.90;;;;;;11019296;32;20030;-73
2021/12/23 18:08:31;;;;;;;33.22;22.60;;;4.70;84.40;;;;;;11019051;32;20402;-70
2021/12/23 18:14:34;;;;;;;46.30;27.45;;;4.70;84.00;;;;;;11018808;32;20022;-70
2021/12/23 18:20:37;;;;;;;53.00;32.90;;;5.00;84.10;;;;;;11014184;32;20023;-70
2021/12/23 18:26:39;;;;;;;31.08;20.90;;;5.50;83.60;;;;;;11003799;32;20030;-70
2021/12/23 18:32:43;;;;;;;33.90;21.35;;;5.70;82.80;;;;;;11018475;32;20338;-70
2021/12/23 18:38:48;;;;;;;44.80;24.33;;;5.30;82.80;;;;;;11015773;32;20019;-70
2021/12/23 18:44:50;;;;;;;29.60;17.70;;;5.00;83.20;;;;;;11017659;32;20322;-70
2021/12/23 18:50:53;;;;;;;43.85;23.60;;;4.60;83.50;;;;;;11004330;32;20023;-70
2021/12/23 18:56:56;;;;;;;30.92;19.23;;;4.30;83.60;;;;;;11017821;32;20432;-72
2021/12/23 19:03:11;;;;;;;37.63;24.50;;;4.20;84.40;;;;;;11013865;32;20430;-73
2021/12/23 19:09:14;;;;;;;61.78;41.50;;;4.70;84.20;;;;;;11017513;32;20049;-70
2021/12/23 19:15:17;;;;;;;56.50;35.78;;;4.90;84.00;;;;;;11017487;32;20014;-70
2021/12/23 19:21:19;;;;;;;69.50;42.75;;;5.20;83.50;;;;;;11017382;32;20064;-70
2021/12/23 19:27:24;;;;;;;43.45;30.25;;;5.40;83.20;;;;;;11018703;32;20026;-72
2021/12/23 19:33:27;;;;;;;39.92;25.55;;;5.60;82.80;;;;;;11024951;32;20394;-72
2021/12/23 19:39:29;;;;;;;34.13;23.83;;;5.40;82.90;;;;;;11024416;32;20064;-72
2021/12/23 19:45:32;;;;;;;47.22;32.50;;;5.20;82.80;;;;;;11021164;32;20425;-72
2021/12/23 19:51:34;;;;;;;38.28;25.42;;;5.00;83.50;;;;;;11024280;32;20037;-72
2021/12/23 19:57:36;;;;;;;56.22;38.90;;;5.20;83.10;;;;;;11023881;32;20031;-72
2021/12/23 20:03:39;;;;;;;45.53;29.73;;;5.30;83.00;;;;;;11023510;32;20021;-72
2021/12/23 20:09:41;;;;;;;46.88;29.23;;;5.50;82.90;;;;;;11009971;32;20040;-72
2021/12/23 20:15:45;;;;;;;44.85;28.30;;;5.70;82.70;;;;;;11008926;32;20018;-72
2021/12/23 20:21:47;;;;;;;38.17;27.85;;;5.70;82.30;;;;;;11022962;32;20214;-72
2021/12/23 20:27:49;;;;;;;38.00;26.75;;;5.50;82.30;;;;;;11022955;32;20022;-72
2021/12/23 20:33:54;;;;;;;49.15;33.90;;;5.40;82.50;;;;;;10988591;32;20398;-74
2021/12/23 20:39:57;;;;;;;39.50;25.70;;;5.50;82.30;;;;;;10983443;32;20050;-74
2021/12/23 20:45:59;;;;;;;44.90;30.12;;;5.60;82.00;;;;;;10984060;32;20065;-71
2021/12/23 20:52:05;;;;;;;48.58;33.78;;;5.50;81.90;;;;;;10983922;32;20007;-71
2021/12/23 20:58:09;;;;;;;37.03;26.17;;;5.40;82.00;;;;;;10983589;32;20049;-72
2021/12/23 21:04:12;;;;;;;34.75;25.60;;;5.50;82.50;;;;;;10983407;32;20018;-72
2021/12/23 21:10:15;;;;;;;50.33;33.72;;;5.20;82.60;;;;;;10983180;32;20034;-71
2021/12/23 21:16:17;;;;;;;41.33;28.52;;;5.30;82.60;;;;;;10969720;32;20068;-71
2021/12/23 21:22:19;;;;;;;51.50;32.58;;;5.40;82.50;;;;;;10982718;32;20026;-71
2021/12/23 21:28:22;;;;;;;40.28;28.27;;;5.40;82.20;;;;;;10982553;32;20383;-69
2021/12/23 21:34:25;;;;;;;38.88;27.05;;;5.40;82.00;;;;;;10980159;32;20019;-69
2021/12/23 21:40:27;;;;;;;30.60;21.95;;;5.40;82.20;;;;;;10982020;32;20377;-69
2021/12/23 21:46:30;;;;;;;32.10;22.77;;;5.20;81.80;;;;;;10981795;32;20023;-71
2021/12/23 21:52:32;;;;;;;37.38;24.10;;;4.90;82.50;;;;;;10981677;32;20022;-73
2021/12/23 21:58:34;;;;;;;35.03;25.90;;;4.70;82.70;;;;;;10981530;32;20095;-71
2021/12/23 22:04:37;;;;;;;34.03;24.17;;;4.70;82.60;;;;;;10981166;32;20014;-72
2021/12/23 22:10:39;;;;;;;42.15;33.50;;;4.50;82.70;;;;;;10980983;32;20057;-73
2021/12/23 22:16:42;;;;;;;38.00;25.35;;;4.40;83.10;;;;;;10980806;32;20022;-71
2021/12/23 22:23:02;;;;;;;41.33;28.73;;;4.60;83.20;;;;;;10976269;32;20026;-70
2021/12/23 22:29:13;;;;;;;35.97;25.55;;;4.50;83.30;;;;;;10976334;32;20429;-71
2021/12/23 22:35:16;;;;;;;31.92;22.48;;;4.40;83.30;;;;;;10980254;32;20019;-71
2021/12/23 22:41:18;;;;;;;36.60;26.60;;;4.40;83.40;;;;;;10979923;32;20379;-71
2021/12/23 22:48:18;;;;;;;34.08;24.85;;;4.30;83.50;;;;;;10979906;32;20026;-71
2021/12/23 22:54:31;;;;;;;42.58;24.83;;;4.30;83.70;;;;;;10776820;32;20031;-73
2021/12/23 23:00:54;;;;;;;33.35;23.05;;;4.40;83.80;;;;;;10789564;32;20066;-70
2021/12/23 23:06:57;;;;;;;38.50;24.20;;;4.40;83.80;;;;;;10789139;32;20028;-70
2021/12/23 23:13:02;;;;;;;30.80;24.63;;;4.30;83.90;;;;;;10788936;32;20088;-70
2021/12/23 23:19:06;;;;;;;35.08;26.55;;;4.40;83.80;;;;;;10788778;32;20028;-70
2021/12/23 23:25:16;;;;;;;35.10;24.65;;;4.60;84.00;;;;;;10794881;32;20082;-70
2021/12/23 23:43:42;;;;;;;48.60;32.20;;;4.20;84.00;;;;;;10978792;32;20347;-70
2021/12/23 23:49:44;;;;;;;35.88;24.27;;;4.30;84.40;;;;;;10978896;32;20383;-70
2021/12/23 23:55:55;;;;;;;34.55;22.40;;;4.40;84.20;;;;;;10978835;32;20418;-70
